sensor_id;sensor_type;location;lat;lon;timestamp;temperature;humidity
17954;DHT22;9102;53.548;9.926;2024-01-11T00:00:09;-1.80;99.90
17954;DHT22;9102;53.548;9.926;2024-01-11T00:02:36;-1.70;99.90
17954;DHT22;9102;53.548;9.926;2024-01-11T00:05:04;-1.70;99.90
17954;DHT22;9102;53.548;9.926;2024-01-11T00:07:32;-1.70;99.90
17954;DHT22;9102;53.548;9.926;2024-01-11T00:10:00;-1.60;99.90
17954;DHT22;9102;53.548;9.926;2024-01-11T00:12:26;-1.60;99.90
17954;DHT22;9102;53.548;9.926;2024-01-11T00:14:53;-1.60;99.90
17954;DHT22;9102;53.548;9.926;2024-01-11T00:17:20;-1.60;99.90
17954;DHT22;9102;53.548;9.926;2024-01-11T00:19:47;-1.70;99.90
17954;DHT22;9102;53.548;9.926;2024-01-11T00:22:15;-1.70;99.90
17954;DHT22;9102;53.548;9.926;2024-01-11T00:24:42;-1.60;99.90
17954;DHT22;9102;53.548;9.926;2024-01-11T00:27:09;-1.60;99.90
17954;DHT22;9102;53.548;9.926;2024-01-11T00:29:36;-1.50;99.90
17954;DHT22;9102;53.548;9.926;2024-01-11T00:32:03;-1.50;99.90
17954;DHT22;9102;53.548;9.926;2024-01-11T00:34:30;-1.60;99.90
17954;DHT22;9102;53.548;9.926;2024-01-11T00:36:57;-1.60;99.90
17954;DHT22;9102;53.548;9.926;2024-01-11T00:39:25;-1.60;99.90
17954;DHT22;9102;53.548;9.926;2024-01-11T00:41:52;-1.60;99.90
17954;DHT22;9102;53.548;9.926;2024-01-11T00:44:18;-1.60;99.90
17954;DHT22;9102;53.548;9.926;2024-01-11T00:46:45;-1.60;99.90
17954;DHT22;9102;53.548;9.926;2024-01-11T00:49:12;-1.60;99.90
17954;DHT22;9102;53.548;9.926;2024-01-11T00:51:39;-1.60;99.90
17954;DHT22;9102;53.548;9.926;2024-01-11T00:54:06;-1.60;99.90
17954;DHT22;9102;53.548;9.926;2024-01-11T00:56:34;-1.60;99.90
17954;DHT22;9102;53.548;9.926;2024-01-11T00:59:01;-1.60;99.90
17954;DHT22;9102;53.548;9.926;2024-01-11T01:01:28;-1.60;99.90
17954;DHT22;9102;53.548;9.926;2024-01-11T01:03:54;-1.60;99.90
17954;DHT22;9102;53.548;9.926;2024-01-11T01:06:22;-1.60;99.90
17954;DHT22;9102;53.548;9.926;2024-01-11T01:08:48;-1.60;99.90
17954;DHT22;9102;53.548;9.926;2024-01-11T01:11:15;-1.60;99.90
17954;DHT22;9102;53.548;9.926;2024-01-11T01:13:45;-1.60;99.90
17954;DHT22;9102;53.548;9.926;2024-01-11T01:16:13;-1.60;99.90
17954;DHT22;9102;53.548;9.926;2024-01-11T01:18:40;-1.70;99.90
17954;DHT22;9102;53.548;9.926;2024-01-11T01:21:07;-1.70;99.90
17954;DHT22;9102;53.548;9.926;2024-01-11T01:23:34;-1.70;99.90
17954;DHT22;9102;53.548;9.926;2024-01-11T01:26:00;-1.70;99.90
17954;DHT22;9102;53.548;9.926;2024-01-11T01:28:27;-1.70;99.90
17954;DHT22;9102;53.548;9.926;2024-01-11T01:30:55;-1.70;99.90
17954;DHT22;9102;53.548;9.926;2024-01-11T01:33:22;-1.70;99.90
17954;DHT22;9102;53.548;9.926;2024-01-11T01:35:49;-1.60;99.90
17954;DHT22;9102;53.548;9.926;2024-01-11T01:38:16;-1.60;99.90
17954;DHT22;9102;53.548;9.926;2024-01-11T01:40:43;-1.60;99.90
17954;DHT22;9102;53.548;9.926;2024-01-11T01:43:10;-1.70;99.90
17954;DHT22;9102;53.548;9.926;2024-01-11T01:45:38;-1.70;99.90
17954;DHT22;9102;53.548;9.926;2024-01-11T01:48:07;-1.70;99.90
17954;DHT22;9102;53.548;9.926;2024-01-11T01:50:34;-1.60;99.90
17954;DHT22;9102;53.548;9.926;2024-01-11T01:53:02;-1.60;99.90
17954;DHT22;9102;53.548;9.926;2024-01-11T01:55:29;-1.60;99.90
17954;DHT22;9102;53.548;9.926;2024-01-11T01:57:57;-1.60;99.90
17954;DHT22;9102;53.548;9.926;2024-01-11T02:00:26;-1.60;99.90
17954;DHT22;9102;53.548;9.926;2024-01-11T02:02:55;-1.60;99.90
17954;DHT22;9102;53.548;9.926;2024-01-11T02:05:24;-1.60;99.90
17954;DHT22;9102;53.548;9.926;2024-01-11T02:07:51;-1.60;99.90
17954;DHT22;9102;53.548;9.926;2024-01-11T02:10:19;-1.60;99.90
17954;DHT22;9102;53.548;9.926;2024-01-11T02:12:46;-1.70;99.90
17954;DHT22;9102;53.548;9.926;2024-01-11T02:15:14;-1.80;99.90
17954;DHT22;9102;53.548;9.926;2024-01-11T02:17:41;-1.80;99.90
17954;DHT22;9102;53.548;9.926;2024-01-11T02:20:09;-1.70;99.90
17954;DHT22;9102;53.548;9.926;2024-01-11T02:22:40;-1.60;99.90
17954;DHT22;9102;53.548;9.926;2024-01-11T02:25:08;-1.60;99.90
17954;DHT22;9102;53.548;9.926;2024-01-11T02:27:45;-1.60;99.90
17954;DHT22;9102;53.548;9.926;2024-01-11T02:30:13;-1.60;99.90
17954;DHT22;9102;53.548;9.926;2024-01-11T02:32:40;-1.60;99.90
17954;DHT22;9102;53.548;9.926;2024-01-11T02:35:08;-1.50;99.90
17954;DHT22;9102;53.548;9.926;2024-01-11T02:37:36;-1.60;99.90
17954;DHT22;9102;53.548;9.926;2024-01-11T02:40:05;-1.40;99.90
17954;DHT22;9102;53.548;9.926;2024-01-11T02:42:34;-1.50;99.90
17954;DHT22;9102;53.548;9.926;2024-01-11T02:45:01;-1.40;99.90
17954;DHT22;9102;53.548;9.926;2024-01-11T02:47:29;-1.50;99.90
17954;DHT22;9102;53.548;9.926;2024-01-11T02:49:56;-1.50;99.90
17954;DHT22;9102;53.548;9.926;2024-01-11T02:52:23;-1.50;99.90
17954;DHT22;9102;53.548;9.926;2024-01-11T02:54:49;-1.60;99.90
17954;DHT22;9102;53.548;9.926;2024-01-11T02:57:16;-1.50;99.90
17954;DHT22;9102;53.548;9.926;2024-01-11T02:59:44;-1.40;99.90
17954;DHT22;9102;53.548;9.926;2024-01-11T03:02:11;-1.40;99.90
17954;DHT22;9102;53.548;9.926;2024-01-11T03:04:38;-1.50;99.90
17954;DHT22;9102;53.548;9.926;2024-01-11T03:07:05;-1.50;99.90
17954;DHT22;9102;53.548;9.926;2024-01-11T03:09:31;-1.50;99.90
17954;DHT22;9102;53.548;9.926;2024-01-11T03:11:59;-1.40;99.90
17954;DHT22;9102;53.548;9.926;2024-01-11T03:14:26;-1.40;99.90
17954;DHT22;9102;53.548;9.926;2024-01-11T03:16:54;-1.40;99.90
17954;DHT22;9102;53.548;9.926;2024-01-11T03:19:21;-1.30;99.90
17954;DHT22;9102;53.548;9.926;2024-01-11T03:21:48;-1.30;99.90
17954;DHT22;9102;53.548;9.926;2024-01-11T03:24:15;-1.30;99.90
17954;DHT22;9102;53.548;9.926;2024-01-11T03:26:41;-1.20;99.90
17954;DHT22;9102;53.548;9.926;2024-01-11T03:29:08;-1.30;99.90
17954;DHT22;9102;53.548;9.926;2024-01-11T03:31:35;-1.20;99.90
17954;DHT22;9102;53.548;9.926;2024-01-11T03:34:05;-1.30;99.90
17954;DHT22;9102;53.548;9.926;2024-01-11T03:36:31;-1.30;99.90
17954;DHT22;9102;53.548;9.926;2024-01-11T03:38:58;-1.20;99.90
17954;DHT22;9102;53.548;9.926;2024-01-11T03:41:25;-1.20;99.90
17954;DHT22;9102;53.548;9.926;2024-01-11T03:43:52;-1.20;99.90
17954;DHT22;9102;53.548;9.926;2024-01-11T03:46:19;-1.20;99.90
17954;DHT22;9102;53.548;9.926;2024-01-11T03:48:45;-1.20;99.90
17954;DHT22;9102;53.548;9.926;2024-01-11T03:51:14;-1.20;99.90
17954;DHT22;9102;53.548;9.926;2024-01-11T03:53:40;-1.20;99.90
17954;DHT22;9102;53.548;9.926;2024-01-11T03:56:07;-1.20;99.90
17954;DHT22;9102;53.548;9.926;2024-01-11T03:58:35;-1.20;99.90
17954;DHT22;9102;53.548;9.926;2024-01-11T04:01:04;-1.20;99.90
17954;DHT22;9102;53.548;9.926;2024-01-11T04:03:32;-1.20;99.90
17954;DHT22;9102;53.548;9.926;2024-01-11T04:05:59;-1.10;99.90
17954;DHT22;9102;53.548;9.926;2024-01-11T04:08:27;-1.00;99.90
17954;DHT22;9102;53.548;9.926;2024-01-11T04:10:54;-1.00;99.90
17954;DHT22;9102;53.548;9.926;2024-01-11T04:13:21;-1.00;99.90
17954;DHT22;9102;53.548;9.926;2024-01-11T04:15:48;-1.00;99.90
17954;DHT22;9102;53.548;9.926;2024-01-11T04:18:15;-1.10;99.90
17954;DHT22;9102;53.548;9.926;2024-01-11T04:20:42;-1.10;99.90
17954;DHT22;9102;53.548;9.926;2024-01-11T04:23:09;-1.10;99.90
17954;DHT22;9102;53.548;9.926;2024-01-11T04:25:37;-1.00;99.90
17954;DHT22;9102;53.548;9.926;2024-01-11T04:28:04;-1.00;99.90
17954;DHT22;9102;53.548;9.926;2024-01-11T04:30:31;-1.00;99.90
17954;DHT22;9102;53.548;9.926;2024-01-11T04:32:58;-1.00;99.90
17954;DHT22;9102;53.548;9.926;2024-01-11T04:35:25;-1.00;99.90
17954;DHT22;9102;53.548;9.926;2024-01-11T04:37:51;-0.90;99.90
17954;DHT22;9102;53.548;9.926;2024-01-11T04:40:18;-0.90;99.90
17954;DHT22;9102;53.548;9.926;2024-01-11T04:42:46;-1.00;99.90
17954;DHT22;9102;53.548;9.926;2024-01-11T04:45:13;-0.90;99.90
17954;DHT22;9102;53.548;9.926;2024-01-11T04:47:40;-1.00;99.90
17954;DHT22;9102;53.548;9.926;2024-01-11T04:50:07;-0.90;99.90
17954;DHT22;9102;53.548;9.926;2024-01-11T04:52:34;-1.10;99.90
17954;DHT22;9102;53.548;9.926;2024-01-11T04:55:01;-1.10;99.90
17954;DHT22;9102;53.548;9.926;2024-01-11T04:57:30;-1.10;99.90
17954;DHT22;9102;53.548;9.926;2024-01-11T04:59:58;-1.00;99.90
17954;DHT22;9102;53.548;9.926;2024-01-11T05:02:25;-1.00;99.90
17954;DHT22;9102;53.548;9.926;2024-01-11T05:04:52;-1.10;99.90
17954;DHT22;9102;53.548;9.926;2024-01-11T05:07:19;-1.10;99.90
17954;DHT22;9102;53.548;9.926;2024-01-11T05:09:45;-1.20;99.90
17954;DHT22;9102;53.548;9.926;2024-01-11T05:12:12;-1.20;99.90
17954;DHT22;9102;53.548;9.926;2024-01-11T05:14:39;-1.10;99.90
17954;DHT22;9102;53.548;9.926;2024-01-11T05:17:07;-1.20;99.90
17954;DHT22;9102;53.548;9.926;2024-01-11T05:19:34;-1.20;99.90
17954;DHT22;9102;53.548;9.926;2024-01-11T05:22:01;-1.20;99.90
17954;DHT22;9102;53.548;9.926;2024-01-11T05:24:28;-1.20;99.90
17954;DHT22;9102;53.548;9.926;2024-01-11T05:26:57;-1.20;99.90
17954;DHT22;9102;53.548;9.926;2024-01-11T05:29:24;-1.10;99.90
17954;DHT22;9102;53.548;9.926;2024-01-11T05:31:51;-1.10;99.90
17954;DHT22;9102;53.548;9.926;2024-01-11T05:34:20;-1.20;99.90
17954;DHT22;9102;53.548;9.926;2024-01-11T05:36:46;-1.20;99.90
17954;DHT22;9102;53.548;9.926;2024-01-11T05:39:13;-1.10;99.90
17954;DHT22;9102;53.548;9.926;2024-01-11T05:41:43;-1.20;99.90
17954;DHT22;9102;53.548;9.926;2024-01-11T05:44:10;-1.10;99.90
17954;DHT22;9102;53.548;9.926;2024-01-11T05:46:37;-1.10;99.90
17954;DHT22;9102;53.548;9.926;2024-01-11T05:49:04;-1.10;99.90
17954;DHT22;9102;53.548;9.926;2024-01-11T05:51:32;-1.10;99.90
17954;DHT22;9102;53.548;9.926;2024-01-11T05:53:59;-1.00;99.90
17954;DHT22;9102;53.548;9.926;2024-01-11T05:56:26;-1.00;99.90
17954;DHT22;9102;53.548;9.926;2024-01-11T05:58:52;-1.00;99.90
17954;DHT22;9102;53.548;9.926;2024-01-11T06:01:19;-1.00;99.90
17954;DHT22;9102;53.548;9.926;2024-01-11T06:03:47;-1.00;99.90
17954;DHT22;9102;53.548;9.926;2024-01-11T06:06:13;-1.00;99.90
17954;DHT22;9102;53.548;9.926;2024-01-11T06:08:42;-1.00;99.90
17954;DHT22;9102;53.548;9.926;2024-01-11T06:11:09;-1.00;99.90
17954;DHT22;9102;53.548;9.926;2024-01-11T06:13:35;-1.00;99.90
17954;DHT22;9102;53.548;9.926;2024-01-11T06:16:02;-1.00;99.90
17954;DHT22;9102;53.548;9.926;2024-01-11T06:18:29;-1.00;99.90
17954;DHT22;9102;53.548;9.926;2024-01-11T06:20:56;-0.90;99.90
17954;DHT22;9102;53.548;9.926;2024-01-11T06:23:24;-0.90;99.90
17954;DHT22;9102;53.548;9.926;2024-01-11T06:25:53;-0.90;99.90
17954;DHT22;9102;53.548;9.926;2024-01-11T06:28:20;-0.90;99.90
17954;DHT22;9102;53.548;9.926;2024-01-11T06:30:46;-0.90;99.90
17954;DHT22;9102;53.548;9.926;2024-01-11T06:33:13;-0.90;99.90
17954;DHT22;9102;53.548;9.926;2024-01-11T06:35:40;-0.80;99.90
17954;DHT22;9102;53.548;9.926;2024-01-11T06:38:07;-0.80;99.90
17954;DHT22;9102;53.548;9.926;2024-01-11T06:40:34;-0.80;99.90
17954;DHT22;9102;53.548;9.926;2024-01-11T06:43:02;-0.80;99.90
17954;DHT22;9102;53.548;9.926;2024-01-11T06:45:29;-0.80;99.90
17954;DHT22;9102;53.548;9.926;2024-01-11T06:47:56;-0.80;99.90
17954;DHT22;9102;53.548;9.926;2024-01-11T06:50:23;-0.80;99.90
17954;DHT22;9102;53.548;9.926;2024-01-11T06:52:50;-0.80;99.90
17954;DHT22;9102;53.548;9.926;2024-01-11T06:55:17;-0.80;99.90
17954;DHT22;9102;53.548;9.926;2024-01-11T06:57:46;-0.80;99.90
17954;DHT22;9102;53.548;9.926;2024-01-11T07:00:15;-0.70;99.90
17954;DHT22;9102;53.548;9.926;2024-01-11T07:02:41;-0.70;99.90
17954;DHT22;9102;53.548;9.926;2024-01-11T07:05:08;-0.70;99.90
17954;DHT22;9102;53.548;9.926;2024-01-11T07:07:35;-0.60;99.90
17954;DHT22;9102;53.548;9.926;2024-01-11T07:10:02;-0.70;99.90
17954;DHT22;9102;53.548;9.926;2024-01-11T07:12:31;-0.60;99.90
17954;DHT22;9102;53.548;9.926;2024-01-11T07:14:58;-0.60;99.90
17954;DHT22;9102;53.548;9.926;2024-01-11T07:17:26;-0.50;99.90
17954;DHT22;9102;53.548;9.926;2024-01-11T07:19:53;-0.50;99.90
17954;DHT22;9102;53.548;9.926;2024-01-11T07:22:20;-0.60;99.90
17954;DHT22;9102;53.548;9.926;2024-01-11T07:24:47;-0.60;99.90
17954;DHT22;9102;53.548;9.926;2024-01-11T07:27:14;-0.50;99.90
17954;DHT22;9102;53.548;9.926;2024-01-11T07:29:40;-0.50;99.90
17954;DHT22;9102;53.548;9.926;2024-01-11T07:32:07;-0.50;99.90
17954;DHT22;9102;53.548;9.926;2024-01-11T07:34:35;-0.40;99.90
17954;DHT22;9102;53.548;9.926;2024-01-11T07:37:03;-0.40;99.90
17954;DHT22;9102;53.548;9.926;2024-01-11T07:39:30;-0.40;99.90
17954;DHT22;9102;53.548;9.926;2024-01-11T07:41:57;-0.40;99.90
17954;DHT22;9102;53.548;9.926;2024-01-11T07:44:24;-0.50;99.90
17954;DHT22;9102;53.548;9.926;2024-01-11T07:46:51;-0.50;99.90
17954;DHT22;9102;53.548;9.926;2024-01-11T07:49:18;-0.50;99.90
17954;DHT22;9102;53.548;9.926;2024-01-11T07:51:46;-0.40;99.90
17954;DHT22;9102;53.548;9.926;2024-01-11T07:54:13;-0.30;99.90
17954;DHT22;9102;53.548;9.926;2024-01-11T07:56:39;-0.30;99.90
17954;DHT22;9102;53.548;9.926;2024-01-11T07:59:06;-0.20;99.90
17954;DHT22;9102;53.548;9.926;2024-01-11T08:01:33;-0.20;99.90
17954;DHT22;9102;53.548;9.926;2024-01-11T08:04:01;-0.20;99.90
17954;DHT22;9102;53.548;9.926;2024-01-11T08:06:28;-0.10;99.90
17954;DHT22;9102;53.548;9.926;2024-01-11T08:08:56;-0.10;99.90
17954;DHT22;9102;53.548;9.926;2024-01-11T08:11:23;-0.10;99.90
17954;DHT22;9102;53.548;9.926;2024-01-11T08:13:50;-0.10;99.90
17954;DHT22;9102;53.548;9.926;2024-01-11T08:16:19;-0.10;99.90
17954;DHT22;9102;53.548;9.926;2024-01-11T08:18:45;-0.10;99.90
17954;DHT22;9102;53.548;9.926;2024-01-11T08:21:14;0.00;99.90
17954;DHT22;9102;53.548;9.926;2024-01-11T08:23:41;0.00;99.90
17954;DHT22;9102;53.548;9.926;2024-01-11T08:26:12;0.00;99.90
17954;DHT22;9102;53.548;9.926;2024-01-11T08:28:39;0.00;99.90
17954;DHT22;9102;53.548;9.926;2024-01-11T08:31:06;0.00;99.90
17954;DHT22;9102;53.548;9.926;2024-01-11T08:33:34;0.00;99.90
17954;DHT22;9102;53.548;9.926;2024-01-11T08:36:02;0.00;99.90
17954;DHT22;9102;53.548;9.926;2024-01-11T08:38:29;0.00;99.90
17954;DHT22;9102;53.548;9.926;2024-01-11T08:40:57;0.00;99.90
17954;DHT22;9102;53.548;9.926;2024-01-11T08:43:27;0.00;99.90
17954;DHT22;9102;53.548;9.926;2024-01-11T08:45:54;0.10;99.90
17954;DHT22;9102;53.548;9.926;2024-01-11T08:48:21;0.00;99.90
17954;DHT22;9102;53.548;9.926;2024-01-11T08:50:47;0.10;99.90
17954;DHT22;9102;53.548;9.926;2024-01-11T08:53:14;0.10;99.90
17954;DHT22;9102;53.548;9.926;2024-01-11T08:55:43;0.10;99.90
17954;DHT22;9102;53.548;9.926;2024-01-11T08:58:10;0.10;99.90
17954;DHT22;9102;53.548;9.926;2024-01-11T09:00:39;0.20;99.90
17954;DHT22;9102;53.548;9.926;2024-01-11T09:03:06;0.20;99.90
17954;DHT22;9102;53.548;9.926;2024-01-11T09:05:32;0.20;99.90
17954;DHT22;9102;53.548;9.926;2024-01-11T09:07:59;0.20;99.90
17954;DHT22;9102;53.548;9.926;2024-01-11T09:10:25;0.30;99.90
17954;DHT22;9102;53.548;9.926;2024-01-11T09:12:53;0.30;99.90
17954;DHT22;9102;53.548;9.926;2024-01-11T09:15:20;0.40;99.90
17954;DHT22;9102;53.548;9.926;2024-01-11T09:17:48;0.30;99.90
17954;DHT22;9102;53.548;9.926;2024-01-11T09:20:15;0.40;99.90
17954;DHT22;9102;53.548;9.926;2024-01-11T09:22:44;0.40;99.90
17954;DHT22;9102;53.548;9.926;2024-01-11T09:25:12;0.50;99.90
17954;DHT22;9102;53.548;9.926;2024-01-11T09:27:38;0.50;99.90
17954;DHT22;9102;53.548;9.926;2024-01-11T09:30:06;0.40;99.90
17954;DHT22;9102;53.548;9.926;2024-01-11T09:32:34;0.40;99.90
17954;DHT22;9102;53.548;9.926;2024-01-11T09:35:03;0.40;99.90
17954;DHT22;9102;53.548;9.926;2024-01-11T09:37:30;0.40;99.90
17954;DHT22;9102;53.548;9.926;2024-01-11T09:39:57;0.50;99.90
17954;DHT22;9102;53.548;9.926;2024-01-11T09:42:26;0.50;99.90
17954;DHT22;9102;53.548;9.926;2024-01-11T09:44:53;0.50;99.90
17954;DHT22;9102;53.548;9.926;2024-01-11T09:47:21;0.50;99.90
17954;DHT22;9102;53.548;9.926;2024-01-11T09:49:49;0.50;99.90
17954;DHT22;9102;53.548;9.926;2024-01-11T09:52:20;0.50;99.90
17954;DHT22;9102;53.548;9.926;2024-01-11T09:54:49;0.50;99.90
17954;DHT22;9102;53.548;9.926;2024-01-11T09:57:19;0.60;99.90
17954;DHT22;9102;53.548;9.926;2024-01-11T09:59:49;0.60;99.90
17954;DHT22;9102;53.548;9.926;2024-01-11T10:02:17;0.50;99.90
17954;DHT22;9102;53.548;9.926;2024-01-11T10:04:44;0.60;99.90
17954;DHT22;9102;53.548;9.926;2024-01-11T10:07:13;0.50;99.90
17954;DHT22;9102;53.548;9.926;2024-01-11T10:09:41;0.50;99.90
17954;DHT22;9102;53.548;9.926;2024-01-11T10:12:08;0.50;99.90
17954;DHT22;9102;53.548;9.926;2024-01-11T10:14:35;0.50;99.90
17954;DHT22;9102;53.548;9.926;2024-01-11T10:17:03;0.50;99.90
17954;DHT22;9102;53.548;9.926;2024-01-11T10:19:30;0.50;99.90
17954;DHT22;9102;53.548;9.926;2024-01-11T10:21:58;0.50;99.90
17954;DHT22;9102;53.548;9.926;2024-01-11T10:24:25;0.50;99.90
17954;DHT22;9102;53.548;9.926;2024-01-11T10:26:57;0.60;99.90
17954;DHT22;9102;53.548;9.926;2024-01-11T10:29:30;0.60;99.90
17954;DHT22;9102;53.548;9.926;2024-01-11T10:31:57;0.60;99.90
17954;DHT22;9102;53.548;9.926;2024-01-11T10:34:24;0.60;99.90
17954;DHT22;9102;53.548;9.926;2024-01-11T10:36:51;0.60;99.90
17954;DHT22;9102;53.548;9.926;2024-01-11T10:39:19;0.70;99.90
17954;DHT22;9102;53.548;9.926;2024-01-11T10:41:51;0.70;99.90
17954;DHT22;9102;53.548;9.926;2024-01-11T10:44:21;0.70;99.90
17954;DHT22;9102;53.548;9.926;2024-01-11T10:46:49;0.70;99.90
17954;DHT22;9102;53.548;9.926;2024-01-11T10:49:18;0.70;99.90
17954;DHT22;9102;53.548;9.926;2024-01-11T10:51:52;0.70;99.90
17954;DHT22;9102;53.548;9.926;2024-01-11T10:54:20;0.70;99.90
17954;DHT22;9102;53.548;9.926;2024-01-11T10:56:48;0.60;99.90
17954;DHT22;9102;53.548;9.926;2024-01-11T10:59:17;0.60;99.90
17954;DHT22;9102;53.548;9.926;2024-01-11T11:01:46;0.60;99.90
17954;DHT22;9102;53.548;9.926;2024-01-11T11:04:14;0.50;99.90
17954;DHT22;9102;53.548;9.926;2024-01-11T11:06:43;0.60;99.90
17954;DHT22;9102;53.548;9.926;2024-01-11T11:09:11;0.60;99.90
17954;DHT22;9102;53.548;9.926;2024-01-11T11:11:38;0.70;99.90
17954;DHT22;9102;53.548;9.926;2024-01-11T11:14:06;0.70;99.90
17954;DHT22;9102;53.548;9.926;2024-01-11T11:16:33;0.70;99.90
17954;DHT22;9102;53.548;9.926;2024-01-11T11:19:02;0.70;99.90
17954;DHT22;9102;53.548;9.926;2024-01-11T11:21:29;0.70;99.90
17954;DHT22;9102;53.548;9.926;2024-01-11T11:23:56;0.70;99.90
17954;DHT22;9102;53.548;9.926;2024-01-11T11:26:26;0.80;99.90
17954;DHT22;9102;53.548;9.926;2024-01-11T11:28:52;0.80;99.90
17954;DHT22;9102;53.548;9.926;2024-01-11T11:31:34;0.90;99.90
17954;DHT22;9102;53.548;9.926;2024-01-11T11:34:04;1.00;99.90
17954;DHT22;9102;53.548;9.926;2024-01-11T11:36:36;1.00;99.90
17954;DHT22;9102;53.548;9.926;2024-01-11T11:39:03;1.00;99.90
17954;DHT22;9102;53.548;9.926;2024-01-11T11:41:30;1.10;99.90
17954;DHT22;9102;53.548;9.926;2024-01-11T11:44:01;1.20;99.90
17954;DHT22;9102;53.548;9.926;2024-01-11T11:46:28;1.10;99.90
17954;DHT22;9102;53.548;9.926;2024-01-11T11:48:57;1.00;99.90
17954;DHT22;9102;53.548;9.926;2024-01-11T11:51:25;1.10;99.90
17954;DHT22;9102;53.548;9.926;2024-01-11T11:53:53;1.10;99.90
17954;DHT22;9102;53.548;9.926;2024-01-11T11:56:21;1.00;99.90
17954;DHT22;9102;53.548;9.926;2024-01-11T11:58:49;1.10;99.90
17954;DHT22;9102;53.548;9.926;2024-01-11T12:01:18;1.10;99.90
17954;DHT22;9102;53.548;9.926;2024-01-11T12:03:45;1.00;99.90
17954;DHT22;9102;53.548;9.926;2024-01-11T12:06:16;1.10;99.90
17954;DHT22;9102;53.548;9.926;2024-01-11T12:08:45;1.10;99.90
17954;DHT22;9102;53.548;9.926;2024-01-11T12:11:18;1.10;99.90
17954;DHT22;9102;53.548;9.926;2024-01-11T12:13:45;1.20;99.90
17954;DHT22;9102;53.548;9.926;2024-01-11T12:16:12;1.10;99.90
17954;DHT22;9102;53.548;9.926;2024-01-11T12:18:40;1.20;99.90
17954;DHT22;9102;53.548;9.926;2024-01-11T12:21:07;1.20;99.90
17954;DHT22;9102;53.548;9.926;2024-01-11T12:23:34;1.20;99.90
17954;DHT22;9102;53.548;9.926;2024-01-11T12:26:03;1.30;99.90
17954;DHT22;9102;53.548;9.926;2024-01-11T12:28:33;1.30;99.90
17954;DHT22;9102;53.548;9.926;2024-01-11T12:31:00;1.30;99.90
17954;DHT22;9102;53.548;9.926;2024-01-11T12:33:27;1.40;99.90
17954;DHT22;9102;53.548;9.926;2024-01-11T12:35:54;1.40;99.90
17954;DHT22;9102;53.548;9.926;2024-01-11T12:38:21;1.40;99.90
17954;DHT22;9102;53.548;9.926;2024-01-11T12:40:48;1.40;99.90
17954;DHT22;9102;53.548;9.926;2024-01-11T12:43:16;1.40;99.90
17954;DHT22;9102;53.548;9.926;2024-01-11T12:45:43;1.40;99.90
17954;DHT22;9102;53.548;9.926;2024-01-11T12:48:10;1.40;99.90
17954;DHT22;9102;53.548;9.926;2024-01-11T12:50:39;1.50;99.90
17954;DHT22;9102;53.548;9.926;2024-01-11T12:53:08;1.50;99.90
17954;DHT22;9102;53.548;9.926;2024-01-11T12:55:35;1.50;99.90
17954;DHT22;9102;53.548;9.926;2024-01-11T12:58:06;1.50;99.90
17954;DHT22;9102;53.548;9.926;2024-01-11T13:00:36;1.60;99.90
17954;DHT22;9102;53.548;9.926;2024-01-11T13:03:04;1.60;99.90
17954;DHT22;9102;53.548;9.926;2024-01-11T13:05:31;1.70;99.90
17954;DHT22;9102;53.548;9.926;2024-01-11T13:08:01;1.70;99.90
17954;DHT22;9102;53.548;9.926;2024-01-11T13:10:29;1.70;99.90
17954;DHT22;9102;53.548;9.926;2024-01-11T13:12:58;1.80;99.90
17954;DHT22;9102;53.548;9.926;2024-01-11T13:15:26;1.80;99.90
17954;DHT22;9102;53.548;9.926;2024-01-11T13:17:56;1.80;99.90
17954;DHT22;9102;53.548;9.926;2024-01-11T13:20:23;1.80;99.90
17954;DHT22;9102;53.548;9.926;2024-01-11T13:23:00;1.80;99.90
17954;DHT22;9102;53.548;9.926;2024-01-11T13:25:38;1.80;99.90
17954;DHT22;9102;53.548;9.926;2024-01-11T13:28:05;1.80;99.90
17954;DHT22;9102;53.548;9.926;2024-01-11T13:30:32;1.90;99.90
17954;DHT22;9102;53.548;9.926;2024-01-11T13:33:00;1.90;99.90
17954;DHT22;9102;53.548;9.926;2024-01-11T13:35:27;1.90;99.90
17954;DHT22;9102;53.548;9.926;2024-01-11T13:37:54;2.00;99.90
17954;DHT22;9102;53.548;9.926;2024-01-11T13:40:21;2.00;99.90
17954;DHT22;9102;53.548;9.926;2024-01-11T13:42:49;2.00;99.90
17954;DHT22;9102;53.548;9.926;2024-01-11T13:45:16;2.10;99.90
17954;DHT22;9102;53.548;9.926;2024-01-11T13:47:43;2.00;99.90
17954;DHT22;9102;53.548;9.926;2024-01-11T13:50:11;2.00;99.90
17954;DHT22;9102;53.548;9.926;2024-01-11T13:52:38;2.10;99.90
17954;DHT22;9102;53.548;9.926;2024-01-11T13:55:07;2.10;99.90
17954;DHT22;9102;53.548;9.926;2024-01-11T13:57:35;2.10;99.90
17954;DHT22;9102;53.548;9.926;2024-01-11T14:00:03;2.10;99.90
17954;DHT22;9102;53.548;9.926;2024-01-11T14:02:30;2.10;99.90
17954;DHT22;9102;53.548;9.926;2024-01-11T14:04:57;2.10;99.90
17954;DHT22;9102;53.548;9.926;2024-01-11T14:07:25;2.20;99.90
17954;DHT22;9102;53.548;9.926;2024-01-11T14:09:52;2.20;99.90
17954;DHT22;9102;53.548;9.926;2024-01-11T14:12:19;2.30;99.90
17954;DHT22;9102;53.548;9.926;2024-01-11T14:14:46;2.30;99.90
17954;DHT22;9102;53.548;9.926;2024-01-11T14:17:13;2.30;99.90
17954;DHT22;9102;53.548;9.926;2024-01-11T14:19:39;2.30;99.90
17954;DHT22;9102;53.548;9.926;2024-01-11T14:22:07;2.30;99.90
17954;DHT22;9102;53.548;9.926;2024-01-11T14:24:35;2.30;99.90
17954;DHT22;9102;53.548;9.926;2024-01-11T14:27:02;2.30;99.90
17954;DHT22;9102;53.548;9.926;2024-01-11T14:29:29;2.50;99.90
17954;DHT22;9102;53.548;9.926;2024-01-11T14:31:56;2.30;99.90
17954;DHT22;9102;53.548;9.926;2024-01-11T14:34:23;2.30;99.90
17954;DHT22;9102;53.548;9.926;2024-01-11T14:36:50;2.20;99.90
17954;DHT22;9102;53.548;9.926;2024-01-11T14:39:17;2.30;99.90
17954;DHT22;9102;53.548;9.926;2024-01-11T14:41:46;2.50;99.90
17954;DHT22;9102;53.548;9.926;2024-01-11T14:44:13;2.40;99.90
17954;DHT22;9102;53.548;9.926;2024-01-11T14:46:40;2.30;99.90
17954;DHT22;9102;53.548;9.926;2024-01-11T14:49:08;2.30;99.90
17954;DHT22;9102;53.548;9.926;2024-01-11T14:51:34;2.30;99.90
17954;DHT22;9102;53.548;9.926;2024-01-11T14:54:03;2.30;99.90
17954;DHT22;9102;53.548;9.926;2024-01-11T14:56:29;2.30;99.90
17954;DHT22;9102;53.548;9.926;2024-01-11T14:58:58;2.30;99.90
17954;DHT22;9102;53.548;9.926;2024-01-11T15:01:24;2.30;99.90
17954;DHT22;9102;53.548;9.926;2024-01-11T15:03:51;2.30;99.90
17954;DHT22;9102;53.548;9.926;2024-01-11T15:06:18;2.30;99.90
17954;DHT22;9102;53.548;9.926;2024-01-11T15:08:45;2.40;99.90
17954;DHT22;9102;53.548;9.926;2024-01-11T15:11:12;2.30;99.90
17954;DHT22;9102;53.548;9.926;2024-01-11T15:13:40;2.30;99.90
17954;DHT22;9102;53.548;9.926;2024-01-11T15:16:08;2.30;99.90
17954;DHT22;9102;53.548;9.926;2024-01-11T15:18:35;2.30;99.90
17954;DHT22;9102;53.548;9.926;2024-01-11T15:21:02;2.30;99.90
17954;DHT22;9102;53.548;9.926;2024-01-11T15:23:29;2.20;99.90
17954;DHT22;9102;53.548;9.926;2024-01-11T15:25:56;2.20;99.90
17954;DHT22;9102;53.548;9.926;2024-01-11T15:28:23;2.20;99.90
17954;DHT22;9102;53.548;9.926;2024-01-11T15:30:50;2.20;99.90
17954;DHT22;9102;53.548;9.926;2024-01-11T15:33:18;2.20;99.90
17954;DHT22;9102;53.548;9.926;2024-01-11T15:35:45;2.30;99.90
17954;DHT22;9102;53.548;9.926;2024-01-11T15:38:13;2.20;99.90
17954;DHT22;9102;53.548;9.926;2024-01-11T15:40:41;2.20;99.90
17954;DHT22;9102;53.548;9.926;2024-01-11T15:43:08;2.20;99.90
17954;DHT22;9102;53.548;9.926;2024-01-11T15:45:35;2.20;99.90
17954;DHT22;9102;53.548;9.926;2024-01-11T15:48:02;2.30;99.90
17954;DHT22;9102;53.548;9.926;2024-01-11T15:50:30;2.30;99.90
17954;DHT22;9102;53.548;9.926;2024-01-11T15:52:57;2.30;99.90